Time;durP1;ratioP1;P1;durP2;ratioP2;P2;SDS_P1;SDS_P2;PMS_P1;PMS_P2;Temp;Humidity;BMP_temperature;BMP_pressure;BME280_temperature;BME280_humidity;BME280_pressure;Samples;Min_cycle;Max_cycle;Signal;HPM_P1;HPM_P2
2023/07/06 00:00:47;;;;;;;;;7.33;5.33;;;;;20.03;50.50;101248.28;5077444;27;45303;-68
2023/07/06 00:03:14;;;;;;;;;5.00;4.00;;;;;20.12;50.92;101265.16;5077226;28;45976;-68
2023/07/06 00:05:44;;;;;;;;;6.00;4.67;;;;;20.12;50.54;101274.09;5077487;27;45415;-68
2023/07/06 00:08:11;;;;;;;;;6.33;5.33;;;;;20.06;50.89;101261.38;5077525;28;45411;-68
2023/07/06 00:10:39;;;;;;;;;5.67;5.00;;;;;19.85;50.84;101229.84;5076954;28;45707;-68
2023/07/06 00:13:05;;;;;;;;;7.00;7.00;;;;;20.00;51.00;101262.97;5077342;28;47867;-70
2023/07/06 00:15:33;;;;;;;;;7.00;6.00;;;;;19.66;51.09;101220.53;5077225;28;45301;-68
2023/07/06 00:17:59;;;;;;;;;7.00;5.00;;;;;19.97;51.58;101268.75;5077049;28;45422;-67
2023/07/06 00:20:24;;;;;;;;;7.33;6.00;;;;;19.89;51.50;101257.28;5042539;28;45515;-68
2023/07/06 00:22:49;;;;;;;;;6.00;6.00;;;;;19.99;51.07;101276.66;5077131;28;46170;-68
2023/07/06 00:25:15;;;;;;;;;7.00;6.00;;;;;19.98;51.86;101283.09;5076845;28;47156;-67
2023/07/06 00:27:40;;;;;;;;;8.00;5.33;;;;;19.98;51.65;101280.38;5077194;28;45400;-68
2023/07/06 00:30:17;;;;;;;;;5.67;5.67;;;;;19.95;51.44;101284.31;5077420;27;45388;-69
2023/07/06 00:32:43;;;;;;;;;8.00;5.33;;;;;19.92;51.64;101281.16;5076945;28;46596;-68
2023/07/06 00:35:10;;;;;;;;;8.00;7.00;;;;;19.84;51.53;101262.41;5076945;27;45396;-68
2023/07/06 00:37:39;;;;;;;;;4.00;4.00;;;;;19.83;51.28;101277.78;5077140;27;45269;-69
2023/07/06 00:40:09;;;;;;;;;4.33;4.33;;;;;19.84;51.31;101274.03;5077113;28;45486;-69
2023/07/06 00:42:35;;;;;;;;;4.67;3.33;;;;;19.74;51.40;101268.94;5076498;28;46742;-68
2023/07/06 00:45:01;;;;;;;;;5.00;4.33;;;;;19.67;51.47;101257.25;5077108;28;45333;-69
2023/07/06 00:47:32;;;;;;;;;5.33;3.67;;;;;19.82;51.42;101291.44;5077197;28;45299;-68
2023/07/06 00:50:07;;;;;;;;;5.67;4.00;;;;;19.33;51.59;101213.88;5077205;28;46425;-69
2023/07/06 00:52:36;;;;;;;;;4.33;4.33;;;;;19.79;51.49;101292.66;5076638;28;46822;-69
2023/07/06 00:55:04;;;;;;;;;4.00;4.00;;;;;19.78;51.68;101290.97;5076663;28;45313;-69
2023/07/06 00:57:32;;;;;;;;;3.67;2.00;;;;;19.75;51.57;101292.19;5076704;27;45284;-69
2023/07/06 00:59:58;;;;;;;;;4.00;4.00;;;;;19.63;51.61;101277.56;5076987;27;45536;-69
2023/07/06 01:02:27;;;;;;;;;5.33;4.33;;;;;19.72;51.75;101300.69;5041693;28;48384;-68
2023/07/06 01:04:53;;;;;;;;;4.00;4.00;;;;;19.68;51.52;101296.69;5076878;28;45315;-69
2023/07/06 01:07:23;;;;;;;;;3.00;3.00;;;;;19.67;51.92;101303.13;5076989;28;45302;-69
2023/07/06 01:09:50;;;;;;;;;3.33;3.33;;;;;19.67;51.81;101300.41;5076683;27;45387;-69
2023/07/06 01:12:16;;;;;;;;;6.00;3.33;;;;;19.58;51.93;101288.06;5055735;28;49014;-68
2023/07/06 01:14:42;;;;;;;;;5.67;5.00;;;;;19.58;51.91;101285.34;5059772;28;45587;-70
2023/07/06 01:17:15;;;;;;;;;6.67;4.00;;;;;19.60;52.13;101299.50;5059642;28;45358;-68
2023/07/06 01:20:00;;;;;;;;;4.00;3.00;;;;;19.14;51.97;101215.31;5060178;28;45229;-67
2023/07/06 01:22:47;;;;;;;;;3.67;3.67;;;;;19.58;52.12;101296.16;5059644;28;46559;-69
2023/07/06 01:25:24;;;;;;;;;5.00;4.00;;;;;19.56;52.20;101292.81;5059433;28;45400;-69
2023/07/06 01:28:05;;;;;;;;;4.67;3.67;;;;;19.38;52.15;101265.38;5059770;28;45389;-71
2023/07/06 01:30:49;;;;;;;;;11.33;6.67;;;;;19.52;52.47;101296.03;5059976;28;45496;-68
2023/07/06 01:33:22;;;;;;;;;5.67;5.67;;;;;19.52;52.56;101296.03;5059487;28;46881;-68
2023/07/06 01:35:56;;;;;;;;;5.00;4.00;;;;;19.48;52.56;101295.59;5059472;28;45639;-68
2023/07/06 01:38:22;;;;;;;;;7.00;4.33;;;;;19.51;52.82;101294.38;5059785;28;45349;-68
2023/07/06 01:40:48;;;;;;;;;4.33;4.33;;;;;19.48;52.57;101283.97;5062823;28;45309;-67
2023/07/06 01:43:14;;;;;;;;;4.00;4.00;;;;;19.47;52.81;101288.53;5078997;28;45851;-68
2023/07/06 01:45:40;;;;;;;;;5.67;3.67;;;;;19.47;52.63;101288.53;5079811;27;45252;-67
2023/07/06 01:48:10;;;;;;;;;4.33;3.33;;;;;19.45;52.76;101288.72;5061488;28;45342;-68
2023/07/06 01:50:59;;;;;;;;;4.33;4.33;;;;;19.01;52.78;101215.97;5079857;27;45492;-68
2023/07/06 01:53:34;;;;;;;;;3.67;3.33;;;;;19.41;52.77;101273.09;5079263;27;45677;-72
2023/07/06 01:56:05;;;;;;;;;5.33;5.33;;;;;19.36;53.03;101280.91;5079343;27;45332;-69
2023/07/06 01:58:43;;;;;;;;;6.67;6.00;;;;;19.34;52.95;101283.78;5079570;28;45424;-68
2023/07/06 02:01:14;;;;;;;;;6.00;5.00;;;;;19.33;53.04;101276.72;5079619;28;46004;-68
2023/07/06 02:03:41;;;;;;;;;3.67;3.00;;;;;19.30;52.95;101278.97;5079298;28;46820;-68
2023/07/06 02:06:08;;;;;;;;;6.00;5.00;;;;;19.33;53.22;101290.22;5079062;27;45498;-68
2023/07/06 02:08:41;;;;;;;;;5.00;5.00;;;;;19.32;53.26;101280.44;5079226;28;45348;-67
2023/07/06 02:11:10;;;;;;;;;4.00;4.00;;;;;19.32;53.61;101283.16;5079400;27;45529;-68
2023/07/06 02:13:35;;;;;;;;;6.67;6.67;;;;;19.20;53.23;101254.16;5078959;28;46398;-68
2023/07/06 02:16:04;;;;;;;;;6.00;5.00;;;;;18.89;52.86;101211.25;5077644;28;45238;-70
2023/07/06 02:18:30;;;;;;;;;4.00;4.00;;;;;19.29;52.91;101271.91;5079260;28;45241;-69
2023/07/06 02:20:57;;;;;;;;;6.00;5.67;;;;;19.27;52.24;101276.66;5079110;28;45554;-68
2023/07/06 02:23:23;;;;;;;;;7.00;6.00;;;;;19.19;52.92;101269.50;5060290;28;46410;-69
2023/07/06 02:25:48;;;;;;;;;7.00;7.00;;;;;19.12;53.05;101253.25;5060198;27;45483;-68
2023/07/06 02:28:13;;;;;;;;;4.67;4.33;;;;;19.09;53.23;101252.78;5079051;27;45450;-69
2023/07/06 02:30:39;;;;;;;;;7.00;6.67;;;;;19.22;52.98;101261.06;5079230;27;45296;-69
2023/07/06 02:33:04;;;;;;;;;5.00;3.67;;;;;19.22;53.16;101266.44;5078726;28;46419;-69
2023/07/06 02:35:32;;;;;;;;;8.67;8.00;;;;;19.21;53.19;101261.22;5078756;28;45317;-68
2023/07/06 02:37:58;;;;;;;;;7.00;5.67;;;;;19.21;53.26;101266.59;5078830;27;45245;-68
2023/07/06 02:40:23;;;;;;;;;9.33;8.00;;;;;19.20;53.31;101270.31;5078355;28;45541;-69
2023/07/06 02:42:48;;;;;;;;;5.67;5.00;;;;;18.86;52.98;101220.56;5078799;28;46634;-68
2023/07/06 02:45:14;;;;;;;;;7.33;6.00;;;;;19.04;53.04;101250.66;5078796;28;48396;-69
2023/07/06 02:47:41;;;;;;;;;11.33;8.33;;;;;19.13;52.88;101267.56;5078772;28;45248;-69
2023/07/06 02:50:11;;;;;;;;;11.00;7.00;;;;;19.15;53.25;101277.13;5078876;28;45293;-68
2023/07/06 02:52:37;;;;;;;;;6.67;6.67;;;;;19.13;53.42;101279.16;5078587;28;46632;-68
2023/07/06 02:55:02;;;;;;;;;9.00;7.00;;;;;19.13;53.27;101281.88;5078179;28;45373;-68
2023/07/06 02:57:28;;;;;;;;;11.00;7.00;;;;;19.02;53.61;101271.56;5078207;28;45213;-68
2023/07/06 02:59:56;;;;;;;;;8.00;8.00;;;;;19.10;53.35;101293.03;5060570;28;45335;-69
2023/07/06 03:02:21;;;;;;;;;8.33;8.33;;;;;19.04;53.66;101274.06;5060195;28;48835;-67
2023/07/06 03:04:46;;;;;;;;;12.00;11.00;;;;;18.72;53.58;101227.63;5059972;28;45606;-69
2023/07/06 03:07:12;;;;;;;;;6.00;6.00;;;;;19.04;53.49;101283.00;5078606;28;45363;-69
2023/07/06 03:09:37;;;;;;;;;13.67;7.33;;;;;19.07;53.49;101293.41;5078447;27;45262;-69
2023/07/06 03:12:05;;;;;;;;;8.67;7.00;;;;;18.97;53.63;101273.97;5077726;28;45464;-68
2023/07/06 03:14:32;;;;;;;;;7.00;5.00;;;;;18.77;53.96;101246.75;5078360;28;45182;-68
2023/07/06 03:16:58;;;;;;;;;9.00;5.00;;;;;18.74;54.11;101235.50;5078389;27;45546;-69
2023/07/06 03:19:23;;;;;;;;;8.00;6.00;;;;;19.01;54.36;101282.50;5076949;28;45216;-67
2023/07/06 03:21:49;;;;;;;;;27.33;20.67;;;;;19.03;54.07;101286.72;5078185;28;46167;-69
2023/07/06 03:24:15;;;;;;;;;8.67;8.67;;;;;18.99;53.53;101268.38;5078177;28;45553;-69
2023/07/06 03:26:41;;;;;;;;;8.00;8.00;;;;;19.05;53.66;101290.06;5059944;28;45582;-68
2023/07/06 03:29:08;;;;;;;;;9.00;6.00;;;;;19.05;53.84;101287.38;5060093;28;45367;-68
2023/07/06 03:31:34;;;;;;;;;8.00;6.00;;;;;18.96;53.37;101275.00;5077943;28;46583;-69
2023/07/06 03:34:01;;;;;;;;;4.00;4.00;;;;;18.98;53.44;101278.31;5077439;27;45387;-69
2023/07/06 03:36:26;;;;;;;;;5.00;5.00;;;;;19.00;53.53;101286.22;5077872;28;45324;-68
2023/07/06 03:38:52;;;;;;;;;7.33;5.33;;;;;18.97;53.71;101281.22;5077768;28;45496;-69
2023/07/06 03:41:18;;;;;;;;;5.67;4.33;;;;;19.00;53.51;101292.44;5076808;27;45775;-68
2023/07/06 03:43:44;;;;;;;;;5.67;4.67;;;;;18.96;54.08;101291.16;5076326;27;45441;-69
2023/07/06 03:46:10;;;;;;;;;10.00;6.33;;;;;19.00;53.78;101297.00;5077940;28;45648;-67
2023/07/06 03:48:44;;;;;;;;;7.33;5.33;;;;;18.94;53.56;101293.19;5078084;28;45443;-68
2023/07/06 03:51:10;;;;;;;;;5.00;5.00;;;;;18.95;53.74;101284.09;5077581;28;46608;-68
2023/07/06 03:53:35;;;;;;;;;6.33;6.33;;;;;18.96;53.41;101296.53;5077232;28;45442;-69
2023/07/06 03:56:02;;;;;;;;;8.33;7.00;;;;;18.92;53.36;101289.84;5077471;28;45308;-69
2023/07/06 03:58:29;;;;;;;;;6.00;5.67;;;;;18.86;53.83;101285.22;5077513;28;45319;-69
2023/07/06 04:00:56;;;;;;;;;8.33;6.00;;;;;18.88;53.46;101293.13;5077369;28;46256;-69
2023/07/06 04:03:21;;;;;;;;;7.67;6.33;;;;;18.79;53.08;101285.09;5077389;27;45268;-68
2023/07/06 04:05:47;;;;;;;;;5.33;5.00;;;;;18.82;53.50;101289.28;5077512;28;45277;-68
2023/07/06 04:08:16;;;;;;;;;5.00;5.00;;;;;18.72;53.27;101277.94;5077431;28;45517;-68
2023/07/06 04:10:42;;;;;;;;;7.00;6.00;;;;;18.79;52.99;101289.66;5076476;27;46206;-69
2023/07/06 04:13:09;;;;;;;;;7.00;4.00;;;;;18.81;52.75;101293.00;5077085;28;45285;-67
2023/07/06 04:15:36;;;;;;;;;5.67;4.67;;;;;18.83;52.72;101286.44;5076745;28;45447;-69
2023/07/06 04:18:03;;;;;;;;;4.67;3.00;;;;;18.79;52.59;101290.50;5077606;28;45261;-70
2023/07/06 04:20:30;;;;;;;;;4.00;4.00;;;;;18.59;52.95;101267.78;5076915;27;46041;-69
2023/07/06 04:22:57;;;;;;;;;6.67;4.67;;;;;18.69;52.71;101270.25;5076974;28;45836;-68
2023/07/06 04:25:29;;;;;;;;;6.00;5.00;;;;;18.78;53.12;101285.28;5075930;28;45506;-68
2023/07/06 04:27:55;;;;;;;;;7.33;4.33;;;;;18.66;53.12;101268.75;5077305;28;45189;-68
2023/07/06 04:30:21;;;;;;;;;6.00;4.33;;;;;18.78;53.26;101293.38;5076980;28;46368;-68
2023/07/06 04:32:50;;;;;;;;;8.00;7.00;;;;;18.80;52.80;101281.38;5077019;28;45579;-69
2023/07/06 04:35:18;;;;;;;;;5.00;5.00;;;;;18.44;53.34;101223.84;5077116;28;45278;-69
2023/07/06 04:37:45;;;;;;;;;7.67;6.00;;;;;18.72;53.54;101273.41;5077287;28;45445;-69
2023/07/06 04:40:13;;;;;;;;;8.33;6.00;;;;;18.57;53.41;101252.81;5057907;28;46591;-69
2023/07/06 04:42:40;;;;;;;;;6.00;5.00;;;;;18.67;53.67;101283.06;5076724;28;45305;-68
2023/07/06 04:45:09;;;;;;;;;8.33;7.00;;;;;18.64;53.77;101269.97;5076854;27;45332;-68
2023/07/06 04:47:35;;;;;;;;;6.00;5.00;;;;;18.34;53.63;101210.66;5079137;28;45241;-68
2023/07/06 04:50:01;;;;;;;;;8.67;6.67;;;;;18.75;53.83;101291.06;5079917;28;45504;-68
2023/07/06 04:52:26;;;;;;;;;7.33;4.00;;;;;18.74;53.43;101300.16;5062090;28;45804;-68
2023/07/06 04:54:51;;;;;;;;;5.00;5.00;;;;;18.77;53.83;101297.09;5079816;28;52190;-68
2023/07/06 04:57:17;;;;;;;;;6.00;6.00;;;;;18.80;53.81;101308.31;5080266;27;45481;-67
2023/07/06 04:59:44;;;;;;;;;8.67;7.33;;;;;18.87;53.81;101304.91;5080233;27;46030;-70
2023/07/06 05:02:10;;;;;;;;;10.00;6.67;;;;;18.88;53.71;101307.44;5080038;28;45343;-68
2023/07/06 05:04:40;;;;;;;;;8.00;7.00;;;;;18.92;53.41;101300.63;5061953;28;45403;-69
2023/07/06 05:07:11;;;;;;;;;7.00;6.00;;;;;18.94;53.24;101309.38;5080181;27;45284;-72
2023/07/06 05:09:38;;;;;;;;;8.67;6.00;;;;;18.85;53.30;101288.94;5079522;27;46427;-69
2023/07/06 05:12:03;;;;;;;;;4.67;4.67;;;;;18.93;53.27;101306.88;5079469;28;45299;-69
2023/07/06 05:14:29;;;;;;;;;7.67;7.67;;;;;18.95;53.66;101312.91;5080203;27;45218;-68
2023/07/06 05:16:54;;;;;;;;;5.33;5.33;;;;;18.92;53.28;101300.63;5080090;28;45325;-68
2023/07/06 05:19:23;;;;;;;;;3.00;3.00;;;;;19.02;53.15;101306.59;5079261;28;47299;-68
2023/07/06 05:21:48;;;;;;;;;10.33;6.00;;;;;18.63;53.21;101247.59;5079424;28;45391;-68
2023/07/06 05:24:14;;;;;;;;;7.33;6.67;;;;;19.00;53.11;101319.41;5079972;27;45482;-69
2023/07/06 05:26:39;;;;;;;;;4.67;4.67;;;;;19.04;53.04;101320.72;5079711;28;45332;-69
2023/07/06 05:29:05;;;;;;;;;6.00;6.00;;;;;19.10;52.84;101311.06;5079811;28;45545;-67
2023/07/06 05:31:31;;;;;;;;;5.33;5.33;;;;;19.06;52.74;101296.28;5061446;28;46766;-67
2023/07/06 05:33:56;;;;;;;;;12.33;9.00;;;;;19.18;52.50;101310.13;5079613;27;45277;-69
2023/07/06 05:36:21;;;;;;;;;5.00;5.00;;;;;19.10;52.54;101309.19;5079852;28;45629;-71
2023/07/06 05:38:47;;;;;;;;;6.33;5.00;;;;;19.05;52.62;101295.44;5079201;28;45340;-70
2023/07/06 05:41:12;;;;;;;;;4.67;4.67;;;;;19.14;52.41;101313.19;5060667;28;45573;-68
2023/07/06 05:43:37;;;;;;;;;6.00;6.00;;;;;19.33;52.41;101319.03;5079340;28;46377;-68
2023/07/06 05:46:03;;;;;;;;;5.67;5.67;;;;;19.37;52.27;101312.25;5079216;28;51482;-70
2023/07/06 05:48:29;;;;;;;;;8.67;6.00;;;;;19.47;52.54;101315.50;5079195;28;45549;-68
2023/07/06 05:50:54;;;;;;;;;6.67;5.33;;;;;19.54;52.38;101319.13;5077411;27;45458;-67
2023/07/06 05:53:20;;;;;;;;;6.67;5.67;;;;;19.54;52.19;101300.25;5075917;28;45386;-67
2023/07/06 05:55:45;;;;;;;;;8.00;8.00;;;;;19.79;51.63;101322.31;5076741;27;46978;-69
2023/07/06 05:58:11;;;;;;;;;6.33;5.33;;;;;19.99;51.01;101327.94;5077286;28;46365;-68
2023/07/06 06:00:39;;;;;;;;;6.00;3.67;;;;;20.08;50.79;101316.00;5057614;28;45961;-70
2023/07/06 06:03:04;;;;;;;;;5.00;3.00;;;;;20.18;50.57;101329.19;5070784;27;45423;-67
2023/07/06 06:05:31;;;;;;;;;8.33;6.67;;;;;20.23;50.58;101316.78;5079090;27;45400;-68
2023/07/06 06:07:56;;;;;;;;;6.00;6.00;;;;;20.95;49.39;101315.72;5060082;28;46612;-66
2023/07/06 06:10:22;;;;;;;;;9.33;6.00;;;;;21.80;47.39;101317.19;5078523;28;45288;-68
2023/07/06 06:12:48;;;;;;;;;5.33;5.00;;;;;22.64;45.66;101314.00;5078625;28;45206;-68
2023/07/06 06:15:15;;;;;;;;;6.00;5.00;;;;;23.22;44.48;101297.84;5067591;28;45487;-68
2023/07/06 06:17:40;;;;;;;;;9.00;8.00;;;;;24.15;42.41;101325.41;5071314;27;46752;-70
2023/07/06 06:20:08;;;;;;;;;6.00;5.67;;;;;24.85;41.19;101332.41;5066878;28;47122;-69
2023/07/06 06:22:34;;;;;;;;;10.00;6.33;;;;;25.55;39.92;101321.16;5038703;28;45486;-68
2023/07/06 06:25:00;;;;;;;;;6.33;5.33;;;;;26.19;38.03;101324.28;5057560;28;45470;-67
2023/07/06 06:27:25;;;;;;;;;5.00;4.33;;;;;26.76;37.09;101321.91;5056078;28;45652;-69
2023/07/06 06:29:51;;;;;;;;;3.00;3.00;;;;;27.06;35.83;101284.44;5056364;28;45380;-69
2023/07/06 06:32:16;;;;;;;;;3.00;3.00;;;;;27.48;34.55;101278.75;5055587;28;45738;-68
2023/07/06 06:34:42;;;;;;;;;4.67;3.00;;;;;28.10;33.53;101323.41;5056986;28;45543;-69
2023/07/06 06:37:09;;;;;;;;;2.67;2.67;;;;;28.32;33.14;101295.38;5057002;28;46236;-70
2023/07/06 06:39:35;;;;;;;;;4.00;4.00;;;;;28.93;32.60;101326.44;5038537;28;45458;-69
2023/07/06 06:42:02;;;;;;;;;5.00;3.00;;;;;29.33;32.12;101327.00;5057770;28;45513;-66
2023/07/06 06:44:29;;;;;;;;;2.00;2.00;;;;;29.75;31.45;101328.34;5058361;28;45232;-69
2023/07/06 06:46:58;;;;;;;;;4.67;3.00;;;;;30.19;30.74;101326.34;5057573;28;47541;-69
2023/07/06 06:49:23;;;;;;;;;5.00;5.00;;;;;30.43;30.34;101286.47;5074865;28;45455;-69
2023/07/06 06:51:49;;;;;;;;;4.00;4.00;;;;;31.13;29.57;101331.16;5078461;28;45284;-69
2023/07/06 06:54:14;;;;;;;;;2.00;2.00;;;;;31.24;27.99;101312.88;5078570;27;45516;-69
2023/07/06 06:56:40;;;;;;;;;4.00;4.00;;;;;31.11;28.34;101287.50;5077768;28;46527;-68
2023/07/06 06:59:07;;;;;;;;;3.67;3.67;;;;;31.52;28.16;101320.66;5059627;28;45343;-69
2023/07/06 07:01:33;;;;;;;;;5.33;5.00;;;;;31.68;27.56;101305.88;5060309;28;45321;-68
2023/07/06 07:04:00;;;;;;;;;4.00;4.00;;;;;32.20;28.03;101335.13;5078357;28;45397;-68
2023/07/06 07:06:27;;;;;;;;;7.00;7.00;;;;;32.67;27.12;101342.31;5077838;27;46603;-70
2023/07/06 07:08:54;;;;;;;;;4.00;4.00;;;;;33.01;25.85;101338.97;5076956;27;45529;-68
2023/07/06 07:11:20;;;;;;;;;6.33;4.00;;;;;33.07;26.13;101340.63;5077538;28;45546;-68
2023/07/06 07:13:50;;;;;;;;;4.33;4.33;;;;;33.17;26.22;101343.34;5078228;27;45404;-69
2023/07/06 07:16:16;;;;;;;;;4.33;3.33;;;;;33.43;25.28;101328.38;5059940;28;48641;-69
2023/07/06 07:18:45;;;;;;;;;6.33;5.00;;;;;33.72;25.19;101342.31;5077270;27;45498;-69
2023/07/06 07:21:12;;;;;;;;;4.67;4.67;;;;;33.97;24.72;101333.06;5076905;28;45676;-72
2023/07/06 07:23:43;;;;;;;;;6.00;4.67;;;;;34.26;24.85;101332.31;5063034;27;45298;-70
2023/07/06 07:26:09;;;;;;;;;6.33;4.67;;;;;34.61;23.82;101323.72;5084333;27;47486;-67
2023/07/06 07:28:37;;;;;;;;;5.33;5.00;;;;;34.95;23.76;101334.75;5077235;28;45183;-68
2023/07/06 07:31:02;;;;;;;;;4.00;4.00;;;;;35.25;23.83;101319.75;5077626;28;45430;-68
2023/07/06 07:33:28;;;;;;;;;15.00;13.67;;;;;35.66;23.30;101330.31;5059369;28;45392;-69
2023/07/06 07:35:57;;;;;;;;;7.33;6.33;;;;;35.89;22.92;101323.91;5076048;27;47832;-69
2023/07/06 07:38:23;;;;;;;;;5.00;3.67;;;;;36.12;22.89;101327.72;5077735;27;45428;-69
2023/07/06 07:40:58;;;;;;;;;5.33;5.33;;;;;36.46;22.46;101332.16;5065570;28;45454;-68
2023/07/06 07:43:27;;;;;;;;;6.00;6.00;;;;;36.74;21.75;101328.31;5057520;28;45637;-69
2023/07/06 07:46:00;;;;;;;;;9.67;7.33;;;;;36.88;21.80;101317.28;5057256;28;45888;-68
2023/07/06 07:48:27;;;;;;;;;5.33;5.00;;;;;36.65;20.71;101243.47;5068761;28;45241;-70
2023/07/06 07:50:56;;;;;;;;;7.33;4.33;;;;;36.92;21.22;101281.47;5059422;27;45331;-70
2023/07/06 07:53:24;;;;;;;;;5.67;4.33;;;;;36.87;20.63;101271.31;5070215;27;45669;-68
2023/07/06 07:55:50;;;;;;;;;4.67;3.33;;;;;37.20;21.20;101329.38;5076596;27;46754;-68
2023/07/06 07:58:16;;;;;;;;;6.67;5.67;;;;;37.29;20.72;101322.03;5088523;27;45355;-68
2023/07/06 08:00:50;;;;;;;;;3.00;3.00;;;;;37.15;19.95;101325.59;5098021;27;45338;-68
2023/07/06 08:03:16;;;;;;;;;4.33;4.33;;;;;37.02;20.92;101326.41;5079442;27;45202;-69
2023/07/06 08:05:42;;;;;;;;;3.00;3.00;;;;;37.08;20.85;101327.16;5093770;27;46702;-69
2023/07/06 08:08:09;;;;;;;;;4.67;3.00;;;;;37.01;20.23;101305.38;5076631;28;45531;-68
2023/07/06 08:10:35;;;;;;;;;5.67;4.00;;;;;36.81;20.45;101280.81;5076557;27;45561;-68
2023/07/06 08:13:02;;;;;;;;;6.67;6.67;;;;;36.73;20.19;101309.22;5063958;27;45515;-67
2023/07/06 08:15:27;;;;;;;;;3.67;3.67;;;;;36.49;20.55;101318.53;5056736;28;45987;-68
2023/07/06 08:17:52;;;;;;;;;3.33;3.33;;;;;36.30;20.84;101323.25;5056614;28;45543;-69
2023/07/06 08:20:19;;;;;;;;;4.33;3.67;;;;;36.41;20.83;101301.78;5074607;27;46254;-67
2023/07/06 08:22:46;;;;;;;;;3.67;3.67;;;;;36.62;20.35;101319.66;5097907;27;45545;-68
2023/07/06 08:25:12;;;;;;;;;4.00;3.00;;;;;36.58;20.57;101307.56;5082991;27;46553;-68
2023/07/06 08:27:39;;;;;;;;;5.67;4.33;;;;;36.54;20.68;101312.06;5079923;27;45293;-70
2023/07/06 08:30:06;;;;;;;;;7.33;4.67;;;;;36.65;20.57;101309.94;5079612;27;45605;-68
2023/07/06 08:32:33;;;;;;;;;4.00;4.00;;;;;36.89;20.52;101296.75;5070750;28;45494;-74
2023/07/06 08:35:01;;;;;;;;;7.67;5.33;;;;;37.29;20.28;101299.84;5079965;27;46690;-68
2023/07/06 08:37:26;;;;;;;;;3.00;3.00;;;;;37.63;19.93;101294.63;5086167;27;45540;-69
2023/07/06 08:39:52;;;;;;;;;3.00;3.00;;;;;37.90;19.78;101295.72;5086374;27;45473;-69
2023/07/06 08:42:21;;;;;;;;;4.00;4.00;;;;;38.16;19.72;101296.72;5061896;27;45526;-70
2023/07/06 08:44:52;;;;;;;;;5.00;4.00;;;;;38.25;18.82;101296.81;5100364;27;47041;-69
2023/07/06 08:47:18;;;;;;;;;3.00;3.00;;;;;38.27;19.21;101295.34;5100724;27;45414;-69
2023/07/06 08:49:44;;;;;;;;;6.00;5.33;;;;;38.21;19.06;101299.38;5100798;27;45536;-69
2023/07/06 08:52:12;;;;;;;;;3.33;3.00;;;;;38.21;18.48;101310.50;5101030;27;45413;-68
2023/07/06 08:54:39;;;;;;;;;3.00;2.00;;;;;38.07;19.09;101293.06;5079063;27;45597;-69
2023/07/06 08:57:15;;;;;;;;;2.33;2.33;;;;;38.34;19.02;101295.72;5079540;27;45473;-69
2023/07/06 08:59:48;;;;;;;;;5.33;3.67;;;;;38.24;17.55;101307.06;5079665;28;45237;-70
2023/07/06 09:02:20;;;;;;;;;2.00;2.00;;;;;38.30;17.85;101303.06;5080218;28;45245;-71
2023/07/06 09:04:47;;;;;;;;;4.00;3.00;;;;;38.21;18.17;101304.94;5079793;28;46485;-70
2023/07/06 09:07:15;;;;;;;;;4.33;4.33;;;;;38.52;17.63;101298.59;5061912;28;45486;-70
2023/07/06 09:09:42;;;;;;;;;2.00;2.00;;;;;38.98;17.88;101308.47;5079195;28;45384;-70
2023/07/06 09:12:13;;;;;;;;;5.67;5.67;;;;;39.60;17.08;101311.13;5078484;27;45281;-70
2023/07/06 09:14:41;;;;;;;;;4.33;2.67;;;;;40.08;16.36;101300.66;5077976;27;46560;-70
2023/07/06 09:17:07;;;;;;;;;4.33;4.33;;;;;40.17;15.90;101283.94;5079603;27;45383;-69
2023/07/06 09:19:33;;;;;;;;;3.33;2.67;;;;;40.49;16.10;101281.75;5080854;27;45404;-71
2023/07/06 09:22:00;;;;;;;;;2.67;2.67;;;;;40.98;15.30;101305.34;5080247;27;45454;-71
2023/07/06 09:24:27;;;;;;;;;3.67;3.00;;;;;41.08;15.31;101299.41;5077254;27;46540;-68
2023/07/06 09:26:57;;;;;;;;;6.33;3.33;;;;;41.53;15.09;101298.78;5075543;27;45303;-69
2023/07/06 09:29:30;;;;;;;;;3.33;3.33;;;;;40.77;15.84;101302.47;5078312;28;45481;-70
2023/07/06 09:32:24;;;;;;;;;2.67;2.67;;;;;40.14;16.29;101296.56;5054218;28;45566;-69
2023/07/06 09:35:05;;;;;;;;;4.33;2.67;;;;;40.66;15.75;101290.06;5059062;28;46610;-68
2023/07/06 09:37:30;;;;;;;;;2.00;2.00;;;;;41.35;15.28;101295.31;5063218;28;45317;-70
2023/07/06 09:40:00;;;;;;;;;1.00;1.00;;;;;42.39;14.91;101292.44;5067902;27;45530;-68
2023/07/06 09:42:28;;;;;;;;;6.00;6.00;;;;;43.20;13.94;101282.38;5071676;28;45541;-68
2023/07/06 09:44:53;;;;;;;;;5.67;4.00;;;;;43.75;14.17;101288.47;5059008;28;46352;-69
2023/07/06 09:47:20;;;;;;;;;3.33;3.33;;;;;44.58;13.03;101293.19;5058833;28;45585;-69
2023/07/06 09:49:53;;;;;;;;;2.67;2.67;;;;;44.57;13.50;101295.19;5071669;28;45435;-68
2023/07/06 09:52:19;;;;;;;;;4.00;4.00;;;;;43.53;13.72;101287.81;5079449;27;45476;-69
2023/07/06 09:54:52;;;;;;;;;4.00;4.00;;;;;42.13;14.54;101289.94;5060493;28;48354;-69
2023/07/06 09:57:17;;;;;;;;;5.33;5.33;;;;;40.74;15.95;101306.75;5078540;28;45509;-69
2023/07/06 09:59:46;;;;;;;;;5.00;5.00;;;;;39.83;15.79;101284.75;5076337;28;45490;-69
2023/07/06 10:02:31;;;;;;;;;3.00;2.00;;;;;38.42;17.32;101254.41;5078179;28;45566;-67
2023/07/06 10:04:56;;;;;;;;;2.00;2.00;;;;;37.86;17.97;101251.13;5060667;28;46374;-69
2023/07/06 10:07:48;;;;;;;;;6.00;4.00;;;;;38.00;17.81;101270.47;5060303;28;45546;-69
2023/07/06 10:10:44;;;;;;;;;3.67;3.00;;;;;37.51;18.88;101269.41;5067912;27;45431;-70
2023/07/06 10:13:31;;;;;;;;;3.00;3.00;;;;;36.86;18.45;101253.03;5079334;27;45537;-70
2023/07/06 10:16:20;;;;;;;;;4.00;4.00;;;;;36.42;18.99;101282.06;5079047;27;45240;-69
2023/07/06 10:18:51;;;;;;;;;3.00;3.00;;;;;35.92;19.59;101284.56;5078650;27;45190;-69
2023/07/06 10:21:24;;;;;;;;;4.33;3.00;;;;;35.34;19.64;101284.84;5071394;27;46624;-70
2023/07/06 10:24:08;;;;;;;;;5.33;4.33;;;;;34.86;20.54;101283.22;5075342;28;45478;-71
2023/07/06 10:26:35;;;;;;;;;4.00;2.67;;;;;34.30;20.64;101269.91;5076827;27;45713;-69
2023/07/06 10:29:05;;;;;;;;;4.00;4.00;;;;;33.83;21.11;101277.66;5076139;28;45441;-70
2023/07/06 10:31:44;;;;;;;;;2.00;2.00;;;;;32.90;21.63;101198.53;5076066;27;45714;-70
2023/07/06 10:34:17;;;;;;;;;2.33;2.33;;;;;33.09;21.88;101278.63;5076559;28;45485;-69
2023/07/06 10:36:44;;;;;;;;;2.00;2.00;;;;;32.68;22.05;101280.66;5058265;28;47521;-70
2023/07/06 10:39:32;;;;;;;;;2.67;2.67;;;;;32.26;22.48;101276.28;5076332;27;45391;-70
2023/07/06 10:42:04;;;;;;;;;2.67;2.67;;;;;31.96;22.52;101284.50;5077026;27;45361;-70
2023/07/06 10:44:51;;;;;;;;;6.67;6.67;;;;;31.60;23.08;101278.88;5078557;27;45502;-70
2023/07/06 10:47:28;;;;;;;;;4.67;3.00;;;;;31.32;23.02;101282.13;5078593;28;46545;-69
2023/07/06 10:50:19;;;;;;;;;3.33;3.33;;;;;30.89;23.81;101273.09;5060392;28;45495;-68
2023/07/06 10:52:57;;;;;;;;;2.67;2.67;;;;;30.32;24.29;101216.19;5077852;27;45346;-69
2023/07/06 10:55:23;;;;;;;;;3.67;3.67;;;;;30.39;24.36;101274.38;5077989;28;45468;-70
2023/07/06 10:57:54;;;;;;;;;4.00;3.67;;;;;30.27;24.57;101276.50;5077787;27;46607;-69
2023/07/06 11:00:29;;;;;;;;;6.33;5.00;;;;;30.09;24.62;101269.50;5077206;27;45411;-71
2023/07/06 11:02:56;;;;;;;;;4.00;3.00;;;;;29.84;24.89;101272.81;5078136;28;45613;-69
2023/07/06 11:05:28;;;;;;;;;9.00;9.00;;;;;29.70;25.04;101274.28;5078740;27;45495;-68
2023/07/06 11:07:57;;;;;;;;;4.00;3.33;;;;;29.42;24.84;101269.00;5077789;28;47688;-70
2023/07/06 11:10:31;;;;;;;;;2.33;2.33;;;;;29.23;24.81;101272.06;5059476;28;45486;-70
2023/07/06 11:13:04;;;;;;;;;3.00;2.00;;;;;29.08;24.92;101264.50;5078107;27;45494;-69
2023/07/06 11:15:31;;;;;;;;;2.67;2.67;;;;;28.87;25.57;101264.50;5059927;28;45491;-69
2023/07/06 11:17:58;;;;;;;;;10.00;10.00;;;;;28.50;25.68;101229.47;5077682;28;45769;-70
2023/07/06 11:20:26;;;;;;;;;4.00;3.67;;;;;28.52;26.11;101242.88;5077750;27;45440;-68
2023/07/06 11:23:04;;;;;;;;;3.67;3.00;;;;;28.56;26.04;101246.78;5077702;28;45551;-69
2023/07/06 11:25:31;;;;;;;;;5.33;5.33;;;;;28.37;26.66;101229.81;5077653;27;45535;-68
2023/07/06 11:28:05;;;;;;;;;4.00;3.00;;;;;28.42;26.06;101276.38;5077500;28;46509;-69
2023/07/06 11:30:40;;;;;;;;;2.00;2.00;;;;;28.32;26.06;101257.91;5077313;28;45517;-70